ヌーク の空港の天気 - METARとTAF

ヌーク空港 ( BGGH / GOH ) - グリーンランド ヌーク
飛行場実況気象(Metar)
観測時間12/10 01:50 WGT (12/10 04:50 UTC)
風向・風速北 8m/s
視程-
天気現象
全天の8割程度の雲 雲底高度 3350m
気温-9℃
湿度79%
気圧1004hPa
METARBGGH 100450Z AUTO 35015KT 9999NDV BKN110/// M09/M12 Q1004
過去の天気等 Google飛行場航空写真 Wunderground天気予報

過去48時間のMETAR

飛行場予報(TAF)
発表時間: 12/09 11:26 WGT (12/09 14:26 UTC)
予報対象時間: 9日12時 WGT ~ 9日17時 WGT
風向・風速東北東 5m/s
視程10km以上
全天の8割程度の雲 雲底高度 5490m
TAF BGGH 091426Z 0915/0920 06010KT 9999 BKN180